createdAt,value
2018-07-06T00:00:11.105Z,1011.52
2018-07-06T00:01:11.082Z,1011.53
2018-07-06T00:02:11.073Z,1011.54
2018-07-06T00:03:11.059Z,1011.55
2018-07-06T00:04:11.052Z,1011.53
2018-07-06T00:05:11.043Z,1011.54
2018-07-06T00:06:11.016Z,1011.55
2018-07-06T00:07:11.003Z,1011.58
2018-07-06T00:08:10.989Z,1011.59
2018-07-06T00:09:11.076Z,1011.59
2018-07-06T00:10:10.961Z,1011.58
2018-07-06T00:11:10.946Z,1011.58
2018-07-06T00:12:10.934Z,1011.59
2018-07-06T00:13:10.921Z,1011.55
2018-07-06T00:14:10.910Z,1011.59
2018-07-06T00:15:10.898Z,1011.61
2018-07-06T00:16:10.882Z,1011.66
2018-07-06T00:17:10.867Z,1011.67
2018-07-06T00:18:10.854Z,1011.67
2018-07-06T00:19:10.842Z,1011.65
2018-07-06T00:20:10.829Z,1011.66
2018-07-06T00:21:10.813Z,1011.66
2018-07-06T00:22:10.802Z,1011.67
2018-07-06T00:23:10.787Z,1011.67
2018-07-06T00:24:10.773Z,1011.63
2018-07-06T00:25:10.762Z,1011.68
2018-07-06T00:26:10.750Z,1011.68
2018-07-06T00:27:10.734Z,1011.68
2018-07-06T00:28:10.721Z,1011.67
2018-07-06T00:29:11.024Z,1011.66
2018-07-06T00:30:10.694Z,1011.67
2018-07-06T00:31:10.678Z,1011.69
2018-07-06T00:32:10.666Z,1011.65
2018-07-06T00:33:10.652Z,1011.63
2018-07-06T00:34:10.637Z,1011.65
2018-07-06T00:35:10.625Z,1011.62
2018-07-06T00:36:10.611Z,1011.62
2018-07-06T00:37:10.596Z,1011.63
2018-07-06T00:38:10.585Z,1011.64
2018-07-06T00:39:10.571Z,1011.62
2018-07-06T00:40:10.554Z,1011.64
2018-07-06T00:41:10.544Z,1011.63
2018-07-06T00:42:10.544Z,1011.62
2018-07-06T00:43:10.516Z,1011.60
2018-07-06T00:44:10.500Z,1011.60
2018-07-06T00:45:10.487Z,1011.61
2018-07-06T00:46:10.476Z,1011.61
2018-07-06T00:47:10.461Z,1011.62
2018-07-06T00:48:10.445Z,1011.66
2018-07-06T00:49:10.434Z,1011.64
2018-07-06T00:50:10.419Z,1011.68
2018-07-06T00:51:10.410Z,1011.66
2018-07-06T00:52:10.451Z,1011.63
2018-07-06T00:53:10.379Z,1011.63
2018-07-06T00:54:10.363Z,1011.62
2018-07-06T00:55:10.397Z,1011.57
2018-07-06T00:56:10.336Z,1011.60
2018-07-06T00:57:10.323Z,1011.63
2018-07-06T00:58:10.309Z,1011.63
2018-07-06T00:59:10.295Z,1011.63
2018-07-06T01:00:10.281Z,1011.63
2018-07-06T01:01:10.275Z,1011.66
2018-07-06T01:02:10.256Z,1011.69
2018-07-06T01:03:10.239Z,1011.72
2018-07-06T01:04:10.236Z,1011.74
2018-07-06T01:05:10.219Z,1011.74
2018-07-06T01:06:10.197Z,1011.73
2018-07-06T01:07:10.197Z,1011.75
2018-07-06T01:08:10.172Z,1011.79
2018-07-06T01:09:10.159Z,1011.76
2018-07-06T01:10:10.179Z,1011.78
2018-07-06T01:11:10.130Z,1011.80
2018-07-06T01:12:10.116Z,1011.79
2018-07-06T01:13:10.102Z,1011.79
2018-07-06T01:14:10.089Z,1011.84
2018-07-06T01:15:10.074Z,1011.83
2018-07-06T01:16:10.063Z,1011.83
2018-07-06T01:17:10.047Z,1011.83
2018-07-06T01:18:10.032Z,1011.85
2018-07-06T01:19:10.021Z,1011.89
2018-07-06T01:20:10.005Z,1011.89
2018-07-06T01:21:09.992Z,1011.85
2018-07-06T01:22:09.976Z,1011.93
2018-07-06T01:23:09.963Z,1011.87
2018-07-06T01:24:09.950Z,1011.89
2018-07-06T01:25:09.935Z,1011.89
2018-07-06T01:26:09.925Z,1011.90
2018-07-06T01:27:09.910Z,1011.89
2018-07-06T01:28:09.894Z,1011.89
2018-07-06T01:29:09.885Z,1011.90
2018-07-06T01:30:09.867Z,1011.92
2018-07-06T01:31:09.869Z,1011.89
2018-07-06T01:32:09.840Z,1011.89
2018-07-06T01:33:09.827Z,1011.92
2018-07-06T01:34:09.819Z,1011.92
2018-07-06T01:35:09.799Z,1011.96
2018-07-06T01:36:09.786Z,1011.93
2018-07-06T01:37:09.771Z,1011.95
2018-07-06T01:38:09.808Z,1011.99
2018-07-06T01:39:09.745Z,1012.00
2018-07-06T01:40:09.732Z,1012.01
2018-07-06T01:41:09.716Z,1012.00
2018-07-06T01:42:09.707Z,1012.01
2018-07-06T01:43:09.698Z,1012.00
2018-07-06T01:44:09.675Z,1012.02
2018-07-06T01:45:09.664Z,1012.02
2018-07-06T01:46:09.649Z,1012.01
2018-07-06T01:47:09.639Z,1012.02
2018-07-06T01:48:09.623Z,1012.04
2018-07-06T01:49:09.616Z,1012.04
2018-07-06T01:50:09.594Z,1012.02
2018-07-06T01:51:09.731Z,1012.04
2018-07-06T01:52:09.568Z,1012.05
2018-07-06T01:53:09.555Z,1012.01
2018-07-06T01:54:09.540Z,1011.98
2018-07-06T01:55:09.527Z,1012.00
2018-07-06T01:56:09.514Z,1012.04
2018-07-06T01:57:09.499Z,1012.00
2018-07-06T01:58:09.484Z,1012.07
2018-07-06T01:59:09.472Z,1012.07
2018-07-06T02:00:09.464Z,1012.01
2018-07-06T02:01:09.446Z,1012.04
2018-07-06T02:02:09.432Z,1011.99
2018-07-06T02:03:09.417Z,1011.98
2018-07-06T02:04:09.406Z,1012.00
2018-07-06T02:05:09.391Z,1011.99
2018-07-06T02:06:09.375Z,1012.00
2018-07-06T02:07:09.362Z,1011.93
2018-07-06T02:08:09.349Z,1011.99
2018-07-06T02:09:09.336Z,1011.98
2018-07-06T02:10:09.322Z,1011.96
2018-07-06T02:11:09.308Z,1011.97
2018-07-06T02:12:09.295Z,1011.96
2018-07-06T02:13:09.282Z,1011.96
2018-07-06T02:14:09.266Z,1011.98
2018-07-06T02:15:09.258Z,1011.96
2018-07-06T02:16:09.239Z,1011.98
2018-07-06T02:17:09.227Z,1011.94
2018-07-06T02:18:09.312Z,1011.92
2018-07-06T02:19:09.199Z,1011.91
2018-07-06T02:20:09.185Z,1011.87
2018-07-06T02:21:09.172Z,1011.88
2018-07-06T02:22:09.159Z,1011.88
2018-07-06T02:23:09.143Z,1011.95
2018-07-06T02:24:09.131Z,1011.91
2018-07-06T02:25:09.126Z,1011.87
2018-07-06T02:26:09.109Z,1011.88
2018-07-06T02:27:09.091Z,1011.87
2018-07-06T02:28:09.077Z,1011.85
2018-07-06T02:29:09.063Z,1011.83
2018-07-06T02:30:09.110Z,1011.81
2018-07-06T02:31:09.035Z,1011.79
2018-07-06T02:32:09.022Z,1011.82
2018-07-06T02:33:09.008Z,1011.80
2018-07-06T02:34:09.095Z,1011.83
2018-07-06T02:35:08.981Z,1011.84
2018-07-06T02:36:08.966Z,1011.82
2018-07-06T02:37:08.959Z,1011.84
2018-07-06T02:38:08.938Z,1011.91
2018-07-06T02:39:08.927Z,1011.92
2018-07-06T02:40:08.921Z,1011.87
2018-07-06T02:41:08.906Z,1011.86
2018-07-06T02:42:08.885Z,1011.84
2018-07-06T02:43:08.871Z,1011.86
2018-07-06T02:44:08.860Z,1011.84
2018-07-06T02:45:08.846Z,1011.86
2018-07-06T02:46:08.829Z,1011.87
2018-07-06T02:47:08.817Z,1011.87
2018-07-06T02:48:08.804Z,1011.87
2018-07-06T02:49:08.790Z,1011.84
2018-07-06T02:50:08.776Z,1011.81
2018-07-06T02:51:08.764Z,1011.87
2018-07-06T02:52:08.748Z,1011.87
2018-07-06T02:53:08.735Z,1011.89
2018-07-06T02:54:08.721Z,1011.89
2018-07-06T02:55:08.712Z,1011.91
2018-07-06T02:56:08.703Z,1011.90
2018-07-06T02:57:08.681Z,1011.88
2018-07-06T02:58:08.666Z,1011.89
2018-07-06T02:59:08.654Z,1011.90
2018-07-06T03:00:08.638Z,1011.91
2018-07-06T03:01:08.629Z,1011.87
2018-07-06T03:02:08.615Z,1011.92
2018-07-06T03:03:08.599Z,1011.94
2018-07-06T03:04:08.586Z,1011.93
2018-07-06T03:05:08.573Z,1011.96
2018-07-06T03:06:08.557Z,1011.99
2018-07-06T03:07:08.545Z,1011.97
2018-07-06T03:08:08.531Z,1011.96
2018-07-06T03:09:08.517Z,1012.04
2018-07-06T03:10:08.504Z,1012.07
2018-07-06T03:11:08.490Z,1012.06
2018-07-06T03:12:08.479Z,1012.05
2018-07-06T03:13:08.473Z,1012.07
2018-07-06T03:14:08.457Z,1012.07
2018-07-06T03:15:08.436Z,1012.08
2018-07-06T03:16:08.423Z,1012.05
2018-07-06T03:17:08.459Z,1012.06
2018-07-06T03:18:08.396Z,1012.07
2018-07-06T03:19:08.383Z,1012.03
2018-07-06T03:20:08.369Z,1012.03
2018-07-06T03:21:08.356Z,1012.05
2018-07-06T03:22:08.342Z,1012.06
2018-07-06T03:23:08.328Z,1012.06
2018-07-06T03:24:08.316Z,1012.08
2018-07-06T03:25:08.310Z,1012.05
2018-07-06T03:26:08.286Z,1012.07
2018-07-06T03:27:08.274Z,1012.09
2018-07-06T03:28:08.367Z,1012.07
2018-07-06T03:29:08.247Z,1012.07
2018-07-06T03:30:08.239Z,1012.07
2018-07-06T03:31:08.222Z,1012.08
2018-07-06T03:32:08.206Z,1012.05
2018-07-06T03:33:08.195Z,1012.08
2018-07-06T03:34:08.177Z,1012.10
2018-07-06T03:35:08.164Z,1012.11
2018-07-06T03:36:08.153Z,1012.14
2018-07-06T03:37:08.139Z,1012.09
2018-07-06T03:38:08.125Z,1012.09
2018-07-06T03:39:08.110Z,1012.18
2018-07-06T03:40:08.097Z,1012.19
2018-07-06T03:41:08.084Z,1012.21
2018-07-06T03:42:08.069Z,1012.24
2018-07-06T03:43:08.065Z,1012.29
2018-07-06T03:44:08.043Z,1012.32
2018-07-06T03:45:08.030Z,1012.32
2018-07-06T03:46:08.016Z,1012.32
2018-07-06T03:47:08.011Z,1012.34
2018-07-06T03:48:08.032Z,1012.32
2018-07-06T03:49:07.975Z,1012.32
2018-07-06T03:50:07.960Z,1012.33
2018-07-06T03:51:07.949Z,1012.31
2018-07-06T03:52:07.933Z,1012.33
2018-07-06T03:53:07.922Z,1012.34
2018-07-06T03:54:07.907Z,1012.35
2018-07-06T03:55:07.898Z,1012.35
2018-07-06T03:56:07.880Z,1012.35
2018-07-06T03:57:07.867Z,1012.36
2018-07-06T03:58:07.852Z,1012.37
2018-07-06T03:59:07.838Z,1012.47
2018-07-06T04:00:07.827Z,1012.47
2018-07-06T04:01:07.854Z,1012.48
2018-07-06T04:02:07.796Z,1012.51
2018-07-06T04:03:07.785Z,1012.49
2018-07-06T04:04:07.770Z,1012.51
2018-07-06T04:05:07.761Z,1012.48
2018-07-06T04:06:07.744Z,1012.48
2018-07-06T04:07:07.736Z,1012.55
2018-07-06T04:08:07.715Z,1012.51
2018-07-06T04:09:07.730Z,1012.50
2018-07-06T04:10:07.689Z,1012.53
2018-07-06T04:11:07.676Z,1012.50
2018-07-06T04:12:07.662Z,1012.51
2018-07-06T04:13:07.648Z,1012.52
2018-07-06T04:14:07.638Z,1012.52
2018-07-06T04:15:07.621Z,1012.57
2018-07-06T04:16:07.791Z,1012.57
2018-07-06T04:17:07.593Z,1012.58
2018-07-06T04:18:07.578Z,1012.59
2018-07-06T04:19:07.570Z,1012.60
2018-07-06T04:20:07.556Z,1012.63
2018-07-06T04:21:07.542Z,1012.69
2018-07-06T04:22:07.525Z,1012.60
2018-07-06T04:23:07.524Z,1012.62
2018-07-06T04:24:07.499Z,1012.60
2018-07-06T04:25:07.483Z,1012.60
2018-07-06T04:26:07.473Z,1012.61
2018-07-06T04:27:07.457Z,1012.64
2018-07-06T04:28:07.444Z,1012.63
2018-07-06T04:29:07.434Z,1012.64
2018-07-06T04:30:07.416Z,1012.65
2018-07-06T04:31:07.407Z,1012.61
2018-07-06T04:32:07.393Z,1012.63
2018-07-06T04:33:07.379Z,1012.63
2018-07-06T04:34:07.372Z,1012.66
2018-07-06T04:35:07.349Z,1012.65
2018-07-06T04:36:07.337Z,1012.71
2018-07-06T04:37:07.341Z,1012.67
2018-07-06T04:38:07.320Z,1012.67
2018-07-06T04:39:07.295Z,1012.65
2018-07-06T04:40:07.281Z,1012.75
2018-07-06T04:41:07.267Z,1012.72
2018-07-06T04:42:07.255Z,1012.70
2018-07-06T04:43:07.241Z,1012.78
2018-07-06T04:44:07.229Z,1012.73
2018-07-06T04:45:07.213Z,1012.78
2018-07-06T04:46:07.200Z,1012.74
2018-07-06T04:47:07.185Z,1012.77
2018-07-06T04:48:07.172Z,1012.80
2018-07-06T04:49:07.159Z,1012.82
2018-07-06T04:50:07.145Z,1012.78
2018-07-06T04:51:07.170Z,1012.79
2018-07-06T04:52:07.124Z,1012.81
2018-07-06T04:53:07.105Z,1012.82
2018-07-06T04:54:07.091Z,1012.78
2018-07-06T04:55:07.074Z,1012.82
2018-07-06T04:56:07.062Z,1012.82
2018-07-06T04:57:07.049Z,1012.88
2018-07-06T04:58:07.034Z,1012.84
2018-07-06T04:59:07.027Z,1012.91
2018-07-06T05:00:07.007Z,1012.83
2018-07-06T05:01:06.995Z,1012.87
2018-07-06T05:02:06.980Z,1012.87
2018-07-06T05:03:06.967Z,1012.86
2018-07-06T05:04:06.956Z,1012.85
2018-07-06T05:05:06.940Z,1012.84
2018-07-06T05:06:06.927Z,1012.91
2018-07-06T05:07:06.913Z,1012.92
2018-07-06T05:08:06.899Z,1012.91
2018-07-06T05:09:06.884Z,1012.90
2018-07-06T05:10:06.878Z,1012.92
2018-07-06T05:11:06.857Z,1012.92
2018-07-06T05:12:06.842Z,1012.93
2018-07-06T05:13:06.834Z,1012.95
2018-07-06T05:14:06.815Z,1012.97
2018-07-06T05:15:06.803Z,1012.98
2018-07-06T05:16:06.798Z,1012.97
2018-07-06T05:17:06.775Z,1012.97
2018-07-06T05:18:06.765Z,1012.99
2018-07-06T05:19:06.748Z,1012.99
2018-07-06T05:20:06.742Z,1013.01
2018-07-06T05:21:06.723Z,1012.98
2018-07-06T05:22:06.805Z,1013.01
2018-07-06T05:23:06.693Z,1012.99
2018-07-06T05:24:06.680Z,1012.99
2018-07-06T05:25:06.668Z,1013.03
2018-07-06T05:26:06.655Z,1013.03
2018-07-06T05:27:06.642Z,1013.00
2018-07-06T05:28:06.631Z,1013.03
2018-07-06T05:29:06.613Z,1013.07
2018-07-06T05:30:06.599Z,1013.04
2018-07-06T05:31:06.597Z,1013.03
2018-07-06T05:32:06.571Z,1013.04
2018-07-06T05:33:06.558Z,1012.99
2018-07-06T05:34:06.595Z,1013.06
2018-07-06T05:35:06.533Z,1013.06
2018-07-06T05:36:06.520Z,1013.03
2018-07-06T05:37:06.507Z,1013.02
2018-07-06T05:38:06.499Z,1013.05
2018-07-06T05:39:06.476Z,1013.08
2018-07-06T05:40:06.462Z,1013.10
2018-07-06T05:41:06.447Z,1013.11
2018-07-06T05:42:06.435Z,1013.12
2018-07-06T05:43:06.426Z,1013.08
2018-07-06T05:44:06.408Z,1013.14
2018-07-06T05:45:06.417Z,1013.11
2018-07-06T05:46:06.380Z,1013.13
2018-07-06T05:47:06.378Z,1013.12
2018-07-06T05:48:06.355Z,1013.16
2018-07-06T05:49:06.339Z,1013.18
2018-07-06T05:50:06.329Z,1013.16
2018-07-06T05:51:06.315Z,1013.17
2018-07-06T05:52:06.300Z,1013.20
2018-07-06T05:53:06.287Z,1013.22
2018-07-06T05:54:06.271Z,1013.24
2018-07-06T05:55:06.359Z,1013.21
2018-07-06T05:56:06.246Z,1013.20
2018-07-06T05:57:06.232Z,1013.24
2018-07-06T05:58:06.217Z,1013.25
2018-07-06T05:59:06.206Z,1013.23
2018-07-06T06:00:06.191Z,1013.24
2018-07-06T06:01:06.185Z,1013.22
2018-07-06T06:02:06.171Z,1013.23
2018-07-06T06:03:06.179Z,1013.27
2018-07-06T06:04:06.138Z,1013.29
2018-07-06T06:05:06.123Z,1013.27
2018-07-06T06:06:06.114Z,1013.27
2018-07-06T06:07:06.100Z,1013.27
2018-07-06T06:08:06.084Z,1013.27
2018-07-06T06:09:06.079Z,1013.30
2018-07-06T06:10:06.059Z,1013.27
2018-07-06T06:11:06.045Z,1013.27
2018-07-06T06:12:06.032Z,1013.26
2018-07-06T06:13:06.024Z,1013.23
2018-07-06T06:14:06.002Z,1013.25
2018-07-06T06:15:05.994Z,1013.26
2018-07-06T06:16:06.017Z,1013.27
2018-07-06T06:17:05.969Z,1013.26
2018-07-06T06:18:05.955Z,1013.28
2018-07-06T06:19:05.938Z,1013.28
2018-07-06T06:20:05.925Z,1013.28
2018-07-06T06:21:05.914Z,1013.28
2018-07-06T06:22:05.896Z,1013.33
2018-07-06T06:23:05.887Z,1013.37
2018-07-06T06:24:05.871Z,1013.33
2018-07-06T06:25:05.858Z,1013.35
2018-07-06T06:26:05.850Z,1013.34
2018-07-06T06:27:05.841Z,1013.35
2018-07-06T06:28:05.824Z,1013.37
2018-07-06T06:29:05.807Z,1013.39
2018-07-06T06:30:05.796Z,1013.39
2018-07-06T06:31:05.783Z,1013.42
2018-07-06T06:32:05.769Z,1013.44
2018-07-06T06:33:05.774Z,1013.43
2018-07-06T06:34:05.743Z,1013.49
2018-07-06T06:35:05.731Z,1013.47
2018-07-06T06:36:05.718Z,1013.48
2018-07-06T06:37:05.704Z,1013.50
2018-07-06T06:38:05.694Z,1013.53
2018-07-06T06:39:05.708Z,1013.54
2018-07-06T06:40:05.666Z,1013.54
2018-07-06T06:41:05.658Z,1013.55
2018-07-06T06:42:05.640Z,1013.54
2018-07-06T06:43:05.628Z,1013.58
2018-07-06T06:44:05.615Z,1013.57
2018-07-06T06:45:05.603Z,1013.61
2018-07-06T06:46:05.598Z,1013.62
2018-07-06T06:47:05.578Z,1013.61
2018-07-06T06:48:05.564Z,1013.66
2018-07-06T06:49:05.551Z,1013.64
2018-07-06T06:50:05.538Z,1013.66
2018-07-06T06:51:05.526Z,1013.71
2018-07-06T06:52:05.514Z,1013.69
2018-07-06T06:53:05.513Z,1013.71
2018-07-06T06:54:05.496Z,1013.72
2018-07-06T06:55:05.477Z,1013.77
2018-07-06T06:56:05.463Z,1013.76
2018-07-06T06:57:05.451Z,1013.76
2018-07-06T06:58:05.445Z,1013.75
2018-07-06T06:59:05.515Z,1013.77
2018-07-06T07:00:05.415Z,1013.77
2018-07-06T07:01:05.510Z,1013.76
2018-07-06T07:02:05.394Z,1013.76
2018-07-06T07:03:05.379Z,1013.77
2018-07-06T07:04:05.369Z,1013.78
2018-07-06T07:05:05.363Z,1013.80
2018-07-06T07:06:05.347Z,1013.79
2018-07-06T07:07:05.331Z,1013.79
2018-07-06T07:08:05.320Z,1013.84
2018-07-06T07:09:05.308Z,1013.83
2018-07-06T07:10:05.296Z,1013.86
2018-07-06T07:11:05.284Z,1013.83
2018-07-06T07:12:05.270Z,1013.86
2018-07-06T07:13:05.266Z,1013.92
2018-07-06T07:14:05.282Z,1013.91
2018-07-06T07:15:05.235Z,1013.89
2018-07-06T07:16:05.233Z,1013.92
2018-07-06T07:17:05.212Z,1013.97
2018-07-06T07:18:05.206Z,1013.96
2018-07-06T07:19:05.219Z,1013.91
2018-07-06T07:20:05.184Z,1013.93
2018-07-06T07:21:05.175Z,1013.97
2018-07-06T07:22:05.166Z,1013.98
2018-07-06T07:23:05.138Z,1013.96
2018-07-06T07:24:05.128Z,1014.00
2018-07-06T07:25:05.117Z,1014.01
2018-07-06T07:26:05.112Z,1014.02
2018-07-06T07:27:05.107Z,1014.00
2018-07-06T07:28:05.079Z,1013.99
2018-07-06T07:29:05.068Z,1014.03
2018-07-06T07:30:05.079Z,1014.02
2018-07-06T07:31:05.102Z,1014.03
2018-07-06T07:32:05.036Z,1014.06
2018-07-06T07:33:05.019Z,1014.08
2018-07-06T07:34:05.007Z,1014.08
2018-07-06T07:35:05.005Z,1014.10
2018-07-06T07:36:04.983Z,1014.06
2018-07-06T07:37:04.972Z,1014.01
2018-07-06T07:38:04.962Z,1014.06
2018-07-06T07:39:04.948Z,1014.03
2018-07-06T07:40:04.943Z,1014.07
2018-07-06T07:41:04.932Z,1014.02
2018-07-06T07:42:04.911Z,1014.05
2018-07-06T07:43:04.898Z,1014.05
2018-07-06T07:44:04.886Z,1014.01
2018-07-06T07:45:04.927Z,1014.02
2018-07-06T07:46:04.865Z,1014.06
2018-07-06T07:47:04.853Z,1014.00
2018-07-06T07:48:04.849Z,1014.05
2018-07-06T07:49:04.835Z,1014.02
2018-07-06T07:50:04.866Z,1014.05
2018-07-06T07:51:04.811Z,1014.09
2018-07-06T07:52:04.795Z,1014.09
2018-07-06T07:53:04.782Z,1014.08
2018-07-06T07:54:04.769Z,1014.07
2018-07-06T07:55:04.809Z,1014.10
2018-07-06T07:56:04.792Z,1014.12
2018-07-06T07:57:04.735Z,1014.10
2018-07-06T07:58:04.723Z,1014.13
2018-07-06T07:59:04.720Z,1014.16
2018-07-06T08:00:04.706Z,1014.15
2018-07-06T08:01:04.842Z,1014.16
2018-07-06T08:02:04.687Z,1014.17
2018-07-06T08:03:04.673Z,1014.22
2018-07-06T08:04:04.654Z,1014.20
2018-07-06T08:05:04.643Z,1014.19
2018-07-06T08:06:04.640Z,1014.15
2018-07-06T08:07:04.619Z,1014.20
2018-07-06T08:08:04.610Z,1014.14
2018-07-06T08:09:04.599Z,1014.18
2018-07-06T08:10:04.584Z,1014.21
2018-07-06T08:11:04.573Z,1014.23
2018-07-06T08:12:04.561Z,1014.22
2018-07-06T08:13:04.554Z,1014.19
2018-07-06T08:14:05.049Z,1014.20
2018-07-06T08:15:04.534Z,1014.21
2018-07-06T08:16:04.520Z,1014.36
2018-07-06T08:17:04.507Z,1014.36
2018-07-06T08:18:04.499Z,1014.28
2018-07-06T08:19:04.486Z,1014.32
2018-07-06T08:20:04.488Z,1014.22
2018-07-06T08:21:04.465Z,1014.20
2018-07-06T08:22:04.455Z,1014.25
2018-07-06T08:23:04.452Z,1014.23
2018-07-06T08:24:04.433Z,1014.21
2018-07-06T08:25:04.424Z,1014.15
2018-07-06T08:26:04.413Z,1014.12
2018-07-06T08:27:04.412Z,1014.21
2018-07-06T08:28:04.396Z,1014.30
2018-07-06T08:29:04.402Z,1014.32
2018-07-06T08:30:04.374Z,1014.26
2018-07-06T08:31:04.366Z,1014.27
2018-07-06T08:32:04.358Z,1014.25
2018-07-06T08:33:04.356Z,1014.29
2018-07-06T08:34:04.336Z,1014.23
2018-07-06T08:35:04.326Z,1014.28
2018-07-06T08:36:04.319Z,1014.25
2018-07-06T08:37:04.309Z,1014.29
2018-07-06T08:38:04.303Z,1014.27
2018-07-06T08:39:04.289Z,1014.23
2018-07-06T08:40:04.279Z,1014.23
2018-07-06T08:41:04.270Z,1014.23
2018-07-06T08:42:04.260Z,1014.24
2018-07-06T08:43:04.257Z,1014.25
2018-07-06T08:44:04.249Z,1014.24
2018-07-06T08:45:04.238Z,1014.25
2018-07-06T08:46:04.221Z,1014.24
2018-07-06T08:47:04.213Z,1014.24
2018-07-06T08:48:04.210Z,1014.25
2018-07-06T08:49:04.195Z,1014.24
2018-07-06T08:50:04.189Z,1014.25
2018-07-06T08:51:04.176Z,1014.25
2018-07-06T08:52:04.165Z,1014.27
2018-07-06T08:53:04.154Z,1014.34
2018-07-06T08:54:04.145Z,1014.38
2018-07-06T08:55:04.136Z,1014.28
2018-07-06T08:56:04.127Z,1014.29
2018-07-06T08:57:04.127Z,1014.30
2018-07-06T08:58:04.158Z,1014.35
2018-07-06T08:59:04.100Z,1014.29
2018-07-06T09:00:04.143Z,1014.30
2018-07-06T09:01:04.086Z,1014.31
2018-07-06T09:02:04.073Z,1014.33
2018-07-06T09:03:04.072Z,1014.41
2018-07-06T09:04:04.119Z,1014.67
2018-07-06T09:05:04.045Z,1014.41
2018-07-06T09:06:04.035Z,1014.39
2018-07-06T09:07:04.027Z,1014.47
2018-07-06T09:08:04.026Z,1014.38
2018-07-06T09:09:04.010Z,1014.41
2018-07-06T09:10:04.007Z,1014.41
2018-07-06T09:11:03.993Z,1014.34
2018-07-06T09:12:03.984Z,1014.40
2018-07-06T09:13:03.979Z,1014.43
2018-07-06T09:14:03.974Z,1014.46
2018-07-06T09:15:03.967Z,1014.45
2018-07-06T09:16:03.952Z,1014.75
2018-07-06T09:17:03.946Z,1014.80
2018-07-06T09:18:03.935Z,1014.47
2018-07-06T09:19:03.928Z,1014.56
2018-07-06T09:20:04.019Z,1014.74
2018-07-06T09:21:03.912Z,1014.98
2018-07-06T09:22:03.904Z,1014.61
2018-07-06T09:23:03.901Z,1014.87
2018-07-06T09:24:03.893Z,1014.64
2018-07-06T09:25:03.886Z,1014.61
2018-07-06T09:26:04.194Z,1014.64
2018-07-06T09:27:03.877Z,1014.60
2018-07-06T09:28:03.870Z,1014.52
2018-07-06T09:29:03.865Z,1014.61
2018-07-06T09:30:03.864Z,1014.64
2018-07-06T09:31:03.854Z,1014.62
2018-07-06T09:32:03.850Z,1014.75
2018-07-06T09:33:03.847Z,1014.63
2018-07-06T09:34:03.838Z,1014.57
2018-07-06T09:35:03.829Z,1014.49
2018-07-06T09:36:03.827Z,1014.54
2018-07-06T09:37:03.834Z,1014.58
2018-07-06T09:38:03.837Z,1014.56
2018-07-06T09:39:03.819Z,1014.50
2018-07-06T09:40:03.804Z,1014.86
2018-07-06T09:41:03.805Z,1014.75
2018-07-06T09:42:03.795Z,1014.93
2018-07-06T09:43:48.021Z,1014.94
2018-07-06T09:44:48.013Z,1015.01
2018-07-06T09:45:48.018Z,1014.69
2018-07-06T09:46:48.009Z,1014.67
2018-07-06T09:47:48.008Z,1014.79
2018-07-06T09:48:47.996Z,1014.69
2018-07-06T09:49:47.993Z,1014.75
2018-07-06T09:50:48.021Z,1014.61
2018-07-06T09:51:47.987Z,1014.62
2018-07-06T09:52:48.093Z,1014.60
2018-07-06T09:53:47.976Z,1014.61
2018-07-06T09:54:47.970Z,1014.60
2018-07-06T09:55:47.966Z,1014.63
2018-07-06T09:56:47.968Z,1014.59
2018-07-06T09:57:47.975Z,1014.62
2018-07-06T09:58:47.956Z,1014.57
2018-07-06T09:59:47.955Z,1014.66
2018-07-06T10:00:47.954Z,1014.89
2018-07-06T10:01:47.953Z,1014.70
2018-07-06T10:02:47.942Z,1014.68
2018-07-06T10:03:47.937Z,1014.60
2018-07-06T10:04:47.931Z,1014.86
2018-07-06T10:05:47.950Z,1014.60
2018-07-06T10:06:47.925Z,1014.68
2018-07-06T10:07:47.920Z,1014.69
2018-07-06T10:08:47.915Z,1014.92
2018-07-06T10:09:47.960Z,1014.86
2018-07-06T10:10:47.910Z,1014.89
2018-07-06T10:11:47.915Z,1014.87
2018-07-06T10:12:47.905Z,1014.83
2018-07-06T10:13:47.900Z,1014.86
2018-07-06T10:14:47.896Z,1014.69
2018-07-06T10:15:47.894Z,1014.83
2018-07-06T10:16:47.891Z,1014.82
2018-07-06T10:17:47.889Z,1014.65
2018-07-06T10:18:47.897Z,1014.71
2018-07-06T10:19:47.905Z,1014.71
2018-07-06T10:20:47.896Z,1014.72
2018-07-06T10:21:47.914Z,1014.73
2018-07-06T10:22:47.901Z,1014.72
2018-07-06T10:23:47.886Z,1014.50
2018-07-06T10:24:47.885Z,1014.74
2018-07-06T10:25:47.904Z,1014.71
2018-07-06T10:26:47.884Z,1014.69
2018-07-06T10:27:47.886Z,1014.65
2018-07-06T10:28:47.886Z,1014.47
2018-07-06T10:29:47.889Z,1014.55
2018-07-06T10:30:47.893Z,1014.66
2018-07-06T10:31:47.903Z,1014.60
2018-07-06T10:32:47.901Z,1014.64
2018-07-06T10:33:47.952Z,1014.65
2018-07-06T10:34:47.920Z,1014.64
2018-07-06T10:35:47.901Z,1014.58
2018-07-06T10:36:47.902Z,1014.53
2018-07-06T10:37:47.905Z,1014.48
2018-07-06T10:38:47.929Z,1014.53
2018-07-06T10:39:48.079Z,1014.49
2018-07-06T10:40:47.916Z,1014.42
2018-07-06T10:41:47.931Z,1014.44
2018-07-06T10:42:47.926Z,1014.42
2018-07-06T10:43:47.926Z,1014.37
2018-07-06T10:44:47.929Z,1014.41
2018-07-06T10:45:47.937Z,1014.38
2018-07-06T10:46:47.941Z,1014.37
2018-07-06T10:47:47.944Z,1014.34
2018-07-06T10:48:47.951Z,1014.32
2018-07-06T10:49:48.007Z,1014.27
2018-07-06T10:50:47.962Z,1014.36
2018-07-06T10:51:47.967Z,1014.35
2018-07-06T10:52:47.971Z,1014.37
2018-07-06T10:53:47.979Z,1014.22
2018-07-06T10:54:47.984Z,1014.29
2018-07-06T10:55:47.990Z,1014.28
2018-07-06T10:56:47.997Z,1014.21
2018-07-06T10:57:48.002Z,1014.24
2018-07-06T10:58:48.009Z,1014.35
2018-07-06T10:59:48.019Z,1014.27
2018-07-06T11:00:48.028Z,1014.34
2018-07-06T11:01:48.025Z,1014.38
2018-07-06T11:02:48.048Z,1014.33
2018-07-06T11:03:48.043Z,1014.24
2018-07-06T11:04:48.045Z,1014.30
2018-07-06T11:05:48.056Z,1014.25
2018-07-06T11:06:48.061Z,1014.20
2018-07-06T11:07:48.064Z,1014.26
2018-07-06T11:08:48.109Z,1014.35
2018-07-06T11:09:48.075Z,1014.37
2018-07-06T11:10:48.089Z,1014.35
2018-07-06T11:11:48.088Z,1014.38
2018-07-06T11:12:48.103Z,1014.40
2018-07-06T11:13:48.102Z,1014.41
2018-07-06T11:14:48.115Z,1014.49
2018-07-06T11:15:48.112Z,1014.46
2018-07-06T11:16:48.120Z,1014.54
2018-07-06T11:17:48.168Z,1014.54
2018-07-06T11:18:48.162Z,1014.51
2018-07-06T11:19:48.140Z,1014.52
2018-07-06T11:20:48.144Z,1014.74
2018-07-06T11:21:48.152Z,1014.73
2018-07-06T11:22:48.160Z,1014.76
2018-07-06T11:23:48.165Z,1014.83
2018-07-06T11:24:48.172Z,1014.84
2018-07-06T11:25:48.180Z,1014.82
2018-07-06T11:26:48.185Z,1014.88
2018-07-06T11:27:48.192Z,1014.91
2018-07-06T11:28:48.200Z,1015.01
2018-07-06T11:29:48.206Z,1015.06
2018-07-06T11:30:48.222Z,1015.07
2018-07-06T11:31:48.227Z,1015.17
2018-07-06T11:32:48.226Z,1015.15
2018-07-06T11:33:48.232Z,1015.23
2018-07-06T11:34:48.249Z,1015.15
2018-07-06T11:35:48.244Z,1015.22
2018-07-06T11:36:48.264Z,1015.33
2018-07-06T11:37:48.289Z,1015.31
2018-07-06T11:38:48.263Z,1015.44
2018-07-06T11:39:48.269Z,1015.44
2018-07-06T11:40:48.275Z,1015.54
2018-07-06T11:41:48.279Z,1015.63
2018-07-06T11:42:48.286Z,1015.82
2018-07-06T11:43:48.291Z,1015.82
2018-07-06T11:44:48.325Z,1015.98
2018-07-06T11:45:48.302Z,1016.13
2018-07-06T11:46:48.311Z,1016.01
2018-07-06T11:47:48.312Z,1015.80
2018-07-06T11:48:48.327Z,1015.46
2018-07-06T11:49:48.322Z,1014.92
2018-07-06T11:50:48.326Z,1014.69
2018-07-06T11:51:48.337Z,1014.68
2018-07-06T11:52:48.334Z,1014.63
2018-07-06T11:53:48.338Z,1014.70
2018-07-06T11:54:48.339Z,1014.67
2018-07-06T11:55:48.343Z,1014.62
2018-07-06T11:56:48.344Z,1014.56
2018-07-06T11:57:48.347Z,1014.58
2018-07-06T11:58:48.351Z,1014.59
2018-07-06T11:59:48.347Z,1014.59
2018-07-06T12:00:48.347Z,1014.60
2018-07-06T12:01:48.369Z,1014.60
2018-07-06T12:02:48.356Z,1014.63
2018-07-06T12:03:48.347Z,1014.55
2018-07-06T12:04:48.346Z,1014.57
2018-07-06T12:05:48.357Z,1014.54